sensor_id;sensor_type;location;lat;lon;timestamp;P1;durP1;ratioP1;P2;durP2;ratioP2
32094;SDS011;18608;53.688;10.748;2022-10-31T00:00:51;46.47;;;29.17;;
32094;SDS011;18608;53.688;10.748;2022-10-31T00:03:16;56.10;;;32.10;;
32094;SDS011;18608;53.688;10.748;2022-10-31T00:05:43;52.00;;;31.47;;
32094;SDS011;18608;53.688;10.748;2022-10-31T00:08:10;41.70;;;25.40;;
32094;SDS011;18608;53.688;10.748;2022-10-31T00:10:40;45.77;;;24.07;;
32094;SDS011;18608;53.688;10.748;2022-10-31T00:13:06;44.43;;;21.90;;
32094;SDS011;18608;53.688;10.748;2022-10-31T00:15:36;50.40;;;23.47;;
32094;SDS011;18608;53.688;10.748;2022-10-31T00:18:03;32.20;;;20.00;;
32094;SDS011;18608;53.688;10.748;2022-10-31T00:20:30;39.13;;;19.87;;
32094;SDS011;18608;53.688;10.748;2022-10-31T00:22:59;36.80;;;20.33;;
32094;SDS011;18608;53.688;10.748;2022-10-31T00:25:26;38.53;;;19.17;;
32094;SDS011;18608;53.688;10.748;2022-10-31T00:27:53;45.73;;;21.27;;
32094;SDS011;18608;53.688;10.748;2022-10-31T00:30:19;62.83;;;21.10;;
32094;SDS011;18608;53.688;10.748;2022-10-31T00:32:45;32.93;;;20.10;;
32094;SDS011;18608;53.688;10.748;2022-10-31T00:35:11;32.07;;;18.80;;
32094;SDS011;18608;53.688;10.748;2022-10-31T00:37:37;40.00;;;20.33;;
32094;SDS011;18608;53.688;10.748;2022-10-31T00:40:04;32.90;;;19.07;;
32094;SDS011;18608;53.688;10.748;2022-10-31T00:42:30;42.93;;;22.60;;
32094;SDS011;18608;53.688;10.748;2022-10-31T00:44:56;50.43;;;24.47;;
32094;SDS011;18608;53.688;10.748;2022-10-31T00:47:22;39.30;;;25.03;;
32094;SDS011;18608;53.688;10.748;2022-10-31T00:49:48;39.87;;;23.50;;
32094;SDS011;18608;53.688;10.748;2022-10-31T00:52:14;44.23;;;23.63;;
32094;SDS011;18608;53.688;10.748;2022-10-31T00:54:39;39.93;;;21.53;;
32094;SDS011;18608;53.688;10.748;2022-10-31T00:57:05;30.87;;;19.90;;
32094;SDS011;18608;53.688;10.748;2022-10-31T00:59:31;37.67;;;20.17;;
32094;SDS011;18608;53.688;10.748;2022-10-31T01:01:57;39.70;;;21.73;;
32094;SDS011;18608;53.688;10.748;2022-10-31T01:04:22;33.93;;;20.27;;
32094;SDS011;18608;53.688;10.748;2022-10-31T01:06:48;39.40;;;21.60;;
32094;SDS011;18608;53.688;10.748;2022-10-31T01:09:14;32.63;;;19.13;;
32094;SDS011;18608;53.688;10.748;2022-10-31T01:11:40;44.20;;;18.40;;
32094;SDS011;18608;53.688;10.748;2022-10-31T01:14:06;32.83;;;19.97;;
32094;SDS011;18608;53.688;10.748;2022-10-31T01:16:33;29.77;;;19.67;;
32094;SDS011;18608;53.688;10.748;2022-10-31T01:18:59;37.00;;;19.37;;
32094;SDS011;18608;53.688;10.748;2022-10-31T01:21:26;37.33;;;20.27;;
32094;SDS011;18608;53.688;10.748;2022-10-31T01:23:53;30.43;;;18.70;;
32094;SDS011;18608;53.688;10.748;2022-10-31T01:26:21;33.43;;;20.37;;
32094;SDS011;18608;53.688;10.748;2022-10-31T01:28:57;30.27;;;19.53;;
32094;SDS011;18608;53.688;10.748;2022-10-31T01:31:33;36.20;;;20.30;;
32094;SDS011;18608;53.688;10.748;2022-10-31T01:34:00;41.93;;;20.70;;
32094;SDS011;18608;53.688;10.748;2022-10-31T01:36:28;47.10;;;23.47;;
32094;SDS011;18608;53.688;10.748;2022-10-31T01:38:57;37.60;;;23.83;;
32094;SDS011;18608;53.688;10.748;2022-10-31T01:41:29;38.60;;;22.30;;
32094;SDS011;18608;53.688;10.748;2022-10-31T01:43:57;49.63;;;22.87;;
32094;SDS011;18608;53.688;10.748;2022-10-31T01:46:36;38.60;;;23.07;;
32094;SDS011;18608;53.688;10.748;2022-10-31T01:49:05;43.60;;;23.40;;
32094;SDS011;18608;53.688;10.748;2022-10-31T01:51:40;51.47;;;24.13;;
32094;SDS011;18608;53.688;10.748;2022-10-31T01:54:12;46.53;;;25.67;;
32094;SDS011;18608;53.688;10.748;2022-10-31T01:56:43;49.53;;;24.80;;
32094;SDS011;18608;53.688;10.748;2022-10-31T01:59:12;45.83;;;26.27;;
32094;SDS011;18608;53.688;10.748;2022-10-31T02:01:42;48.27;;;27.60;;
32094;SDS011;18608;53.688;10.748;2022-10-31T02:04:08;49.03;;;25.83;;
32094;SDS011;18608;53.688;10.748;2022-10-31T02:06:38;57.43;;;28.10;;
32094;SDS011;18608;53.688;10.748;2022-10-31T02:09:18;53.37;;;27.20;;
32094;SDS011;18608;53.688;10.748;2022-10-31T02:11:48;50.27;;;27.90;;
32094;SDS011;18608;53.688;10.748;2022-10-31T02:14:20;54.33;;;28.50;;
32094;SDS011;18608;53.688;10.748;2022-10-31T02:16:48;57.23;;;29.00;;
32094;SDS011;18608;53.688;10.748;2022-10-31T02:19:17;67.27;;;31.03;;
32094;SDS011;18608;53.688;10.748;2022-10-31T02:21:56;52.07;;;26.10;;
32094;SDS011;18608;53.688;10.748;2022-10-31T02:40:21;62.20;;;31.57;;
32094;SDS011;18608;53.688;10.748;2022-10-31T02:48:32;61.40;;;32.40;;
32094;SDS011;18608;53.688;10.748;2022-10-31T02:51:03;63.80;;;34.10;;
32094;SDS011;18608;53.688;10.748;2022-10-31T02:53:33;71.63;;;35.37;;
32094;SDS011;18608;53.688;10.748;2022-10-31T03:09:33;70.63;;;33.63;;
32094;SDS011;18608;53.688;10.748;2022-10-31T03:12:28;66.57;;;35.70;;
32094;SDS011;18608;53.688;10.748;2022-10-31T03:17:36;72.50;;;36.57;;
32094;SDS011;18608;53.688;10.748;2022-10-31T03:20:04;80.13;;;38.17;;
32094;SDS011;18608;53.688;10.748;2022-10-31T03:22:32;85.47;;;40.10;;
32094;SDS011;18608;53.688;10.748;2022-10-31T03:25:00;84.03;;;41.30;;
32094;SDS011;18608;53.688;10.748;2022-10-31T03:27:28;102.67;;;44.43;;
32094;SDS011;18608;53.688;10.748;2022-10-31T03:29:59;113.90;;;47.00;;
32094;SDS011;18608;53.688;10.748;2022-10-31T03:34:53;126.30;;;47.70;;
32094;SDS011;18608;53.688;10.748;2022-10-31T03:37:22;137.63;;;51.80;;
32094;SDS011;18608;53.688;10.748;2022-10-31T03:39:51;129.53;;;53.17;;
32094;SDS011;18608;53.688;10.748;2022-10-31T03:42:25;158.47;;;55.50;;
32094;SDS011;18608;53.688;10.748;2022-10-31T03:44:58;146.23;;;55.23;;
32094;SDS011;18608;53.688;10.748;2022-10-31T03:47:35;155.83;;;55.43;;
32094;SDS011;18608;53.688;10.748;2022-10-31T03:50:03;193.40;;;59.63;;
32094;SDS011;18608;53.688;10.748;2022-10-31T03:52:35;186.53;;;58.20;;
32094;SDS011;18608;53.688;10.748;2022-10-31T04:00:25;171.80;;;61.53;;
32094;SDS011;18608;53.688;10.748;2022-10-31T04:05:20;208.33;;;65.93;;
32094;SDS011;18608;53.688;10.748;2022-10-31T04:07:47;148.00;;;57.40;;
32094;SDS011;18608;53.688;10.748;2022-10-31T04:10:17;179.97;;;63.00;;
32094;SDS011;18608;53.688;10.748;2022-10-31T04:12:44;167.00;;;58.30;;
32094;SDS011;18608;53.688;10.748;2022-10-31T04:15:16;166.57;;;57.90;;
32094;SDS011;18608;53.688;10.748;2022-10-31T04:17:42;139.10;;;54.40;;
32094;SDS011;18608;53.688;10.748;2022-10-31T04:20:14;151.97;;;57.27;;
32094;SDS011;18608;53.688;10.748;2022-10-31T04:22:41;176.43;;;58.00;;
32094;SDS011;18608;53.688;10.748;2022-10-31T04:25:07;225.27;;;68.13;;
32094;SDS011;18608;53.688;10.748;2022-10-31T04:27:33;175.93;;;61.30;;
32094;SDS011;18608;53.688;10.748;2022-10-31T04:29:59;172.20;;;57.77;;
32094;SDS011;18608;53.688;10.748;2022-10-31T04:32:25;164.77;;;60.40;;
32094;SDS011;18608;53.688;10.748;2022-10-31T04:34:51;200.43;;;60.23;;
32094;SDS011;18608;53.688;10.748;2022-10-31T04:37:17;152.97;;;57.27;;
32094;SDS011;18608;53.688;10.748;2022-10-31T04:39:43;163.10;;;60.27;;
32094;SDS011;18608;53.688;10.748;2022-10-31T04:42:09;149.50;;;58.37;;
32094;SDS011;18608;53.688;10.748;2022-10-31T04:44:35;159.00;;;59.03;;
32094;SDS011;18608;53.688;10.748;2022-10-31T04:47:01;161.17;;;58.00;;
32094;SDS011;18608;53.688;10.748;2022-10-31T04:49:27;146.90;;;56.50;;
32094;SDS011;18608;53.688;10.748;2022-10-31T04:51:53;153.70;;;59.70;;
32094;SDS011;18608;53.688;10.748;2022-10-31T04:54:19;168.27;;;58.63;;
32094;SDS011;18608;53.688;10.748;2022-10-31T04:56:45;153.13;;;57.47;;
32094;SDS011;18608;53.688;10.748;2022-10-31T04:59:11;154.70;;;58.00;;
32094;SDS011;18608;53.688;10.748;2022-10-31T05:01:37;160.97;;;56.07;;
32094;SDS011;18608;53.688;10.748;2022-10-31T05:04:03;161.00;;;57.90;;
32094;SDS011;18608;53.688;10.748;2022-10-31T05:06:29;133.07;;;55.00;;
32094;SDS011;18608;53.688;10.748;2022-10-31T05:08:55;154.37;;;55.70;;
32094;SDS011;18608;53.688;10.748;2022-10-31T05:11:20;135.57;;;50.90;;
32094;SDS011;18608;53.688;10.748;2022-10-31T05:13:46;125.20;;;50.97;;
32094;SDS011;18608;53.688;10.748;2022-10-31T05:16:12;140.87;;;53.63;;
32094;SDS011;18608;53.688;10.748;2022-10-31T05:18:38;160.30;;;53.10;;
32094;SDS011;18608;53.688;10.748;2022-10-31T05:21:04;122.83;;;49.00;;
32094;SDS011;18608;53.688;10.748;2022-10-31T05:23:30;128.20;;;49.83;;
32094;SDS011;18608;53.688;10.748;2022-10-31T05:25:56;136.13;;;49.23;;
32094;SDS011;18608;53.688;10.748;2022-10-31T05:28:22;151.17;;;49.70;;
32094;SDS011;18608;53.688;10.748;2022-10-31T05:30:49;162.57;;;50.57;;
32094;SDS011;18608;53.688;10.748;2022-10-31T05:33:15;139.60;;;53.60;;
32094;SDS011;18608;53.688;10.748;2022-10-31T05:35:41;136.30;;;51.10;;
32094;SDS011;18608;53.688;10.748;2022-10-31T05:38:07;134.23;;;46.57;;
32094;SDS011;18608;53.688;10.748;2022-10-31T05:40:32;138.90;;;49.40;;
32094;SDS011;18608;53.688;10.748;2022-10-31T05:42:58;133.57;;;49.93;;
32094;SDS011;18608;53.688;10.748;2022-10-31T05:45:25;149.67;;;53.10;;
32094;SDS011;18608;53.688;10.748;2022-10-31T05:47:54;144.50;;;51.40;;
32094;SDS011;18608;53.688;10.748;2022-10-31T05:50:23;134.93;;;50.17;;
32094;SDS011;18608;53.688;10.748;2022-10-31T05:52:54;136.90;;;52.47;;
32094;SDS011;18608;53.688;10.748;2022-10-31T05:55:28;146.43;;;50.30;;
32094;SDS011;18608;53.688;10.748;2022-10-31T05:57:54;134.93;;;48.27;;
32094;SDS011;18608;53.688;10.748;2022-10-31T06:00:20;133.80;;;49.13;;
32094;SDS011;18608;53.688;10.748;2022-10-31T06:02:47;144.73;;;52.80;;
32094;SDS011;18608;53.688;10.748;2022-10-31T06:05:13;141.07;;;50.10;;
32094;SDS011;18608;53.688;10.748;2022-10-31T06:07:39;139.90;;;47.90;;
32094;SDS011;18608;53.688;10.748;2022-10-31T06:10:05;149.20;;;50.90;;
32094;SDS011;18608;53.688;10.748;2022-10-31T06:12:32;140.37;;;49.33;;
32094;SDS011;18608;53.688;10.748;2022-10-31T06:15:03;153.20;;;49.90;;
32094;SDS011;18608;53.688;10.748;2022-10-31T06:17:30;149.13;;;49.30;;
32094;SDS011;18608;53.688;10.748;2022-10-31T06:19:56;143.70;;;50.37;;
32094;SDS011;18608;53.688;10.748;2022-10-31T06:22:22;142.97;;;48.53;;
32094;SDS011;18608;53.688;10.748;2022-10-31T06:24:48;164.57;;;52.90;;
32094;SDS011;18608;53.688;10.748;2022-10-31T06:27:14;176.30;;;52.03;;
32094;SDS011;18608;53.688;10.748;2022-10-31T06:29:40;144.93;;;49.57;;
32094;SDS011;18608;53.688;10.748;2022-10-31T06:32:09;139.00;;;51.07;;
32094;SDS011;18608;53.688;10.748;2022-10-31T06:34:36;148.10;;;51.67;;
32094;SDS011;18608;53.688;10.748;2022-10-31T06:37:02;145.77;;;49.70;;
32094;SDS011;18608;53.688;10.748;2022-10-31T06:39:28;147.90;;;48.20;;
32094;SDS011;18608;53.688;10.748;2022-10-31T06:41:54;167.50;;;52.63;;
32094;SDS011;18608;53.688;10.748;2022-10-31T06:44:20;158.30;;;50.07;;
32094;SDS011;18608;53.688;10.748;2022-10-31T06:46:46;160.47;;;49.37;;
32094;SDS011;18608;53.688;10.748;2022-10-31T06:49:12;147.30;;;49.70;;
32094;SDS011;18608;53.688;10.748;2022-10-31T06:51:38;143.00;;;47.30;;
32094;SDS011;18608;53.688;10.748;2022-10-31T06:54:04;148.73;;;48.10;;
32094;SDS011;18608;53.688;10.748;2022-10-31T06:56:30;159.27;;;50.23;;
32094;SDS011;18608;53.688;10.748;2022-10-31T06:58:56;145.40;;;45.80;;
32094;SDS011;18608;53.688;10.748;2022-10-31T07:01:22;156.27;;;51.57;;
32094;SDS011;18608;53.688;10.748;2022-10-31T07:03:48;150.80;;;47.70;;
32094;SDS011;18608;53.688;10.748;2022-10-31T07:06:14;148.57;;;47.10;;
32094;SDS011;18608;53.688;10.748;2022-10-31T07:08:40;141.67;;;46.20;;
32094;SDS011;18608;53.688;10.748;2022-10-31T07:11:06;137.47;;;47.10;;
32094;SDS011;18608;53.688;10.748;2022-10-31T07:13:32;137.90;;;47.37;;
32094;SDS011;18608;53.688;10.748;2022-10-31T07:15:59;142.70;;;45.23;;
32094;SDS011;18608;53.688;10.748;2022-10-31T07:18:26;161.47;;;46.20;;
32094;SDS011;18608;53.688;10.748;2022-10-31T07:20:53;161.57;;;45.77;;
32094;SDS011;18608;53.688;10.748;2022-10-31T07:23:19;149.03;;;47.53;;
32094;SDS011;18608;53.688;10.748;2022-10-31T07:25:45;153.47;;;46.90;;
32094;SDS011;18608;53.688;10.748;2022-10-31T07:28:10;132.90;;;48.10;;
32094;SDS011;18608;53.688;10.748;2022-10-31T07:30:37;148.67;;;45.00;;
32094;SDS011;18608;53.688;10.748;2022-10-31T07:33:03;165.67;;;46.23;;
32094;SDS011;18608;53.688;10.748;2022-10-31T07:35:30;168.00;;;47.83;;
32094;SDS011;18608;53.688;10.748;2022-10-31T07:37:56;120.60;;;43.70;;
32094;SDS011;18608;53.688;10.748;2022-10-31T07:40:23;141.93;;;42.87;;
32094;SDS011;18608;53.688;10.748;2022-10-31T07:42:51;124.80;;;42.57;;
32094;SDS011;18608;53.688;10.748;2022-10-31T07:45:18;155.13;;;45.43;;
32094;SDS011;18608;53.688;10.748;2022-10-31T07:47:49;147.80;;;43.37;;
32094;SDS011;18608;53.688;10.748;2022-10-31T07:50:19;128.10;;;43.47;;
32094;SDS011;18608;53.688;10.748;2022-10-31T07:55:27;132.53;;;43.80;;
32094;SDS011;18608;53.688;10.748;2022-10-31T08:00:22;135.67;;;41.60;;
32094;SDS011;18608;53.688;10.748;2022-10-31T08:02:55;123.63;;;39.03;;
32094;SDS011;18608;53.688;10.748;2022-10-31T08:05:29;152.67;;;42.63;;
32094;SDS011;18608;53.688;10.748;2022-10-31T08:07:55;136.40;;;42.63;;
32094;SDS011;18608;53.688;10.748;2022-10-31T08:10:22;138.67;;;41.13;;
32094;SDS011;18608;53.688;10.748;2022-10-31T08:12:55;139.70;;;42.57;;
32094;SDS011;18608;53.688;10.748;2022-10-31T08:15:25;136.97;;;40.20;;
32094;SDS011;18608;53.688;10.748;2022-10-31T08:17:51;134.83;;;40.23;;
32094;SDS011;18608;53.688;10.748;2022-10-31T08:20:18;111.33;;;38.43;;
32094;SDS011;18608;53.688;10.748;2022-10-31T08:22:52;124.17;;;38.97;;
32094;SDS011;18608;53.688;10.748;2022-10-31T08:25:18;133.37;;;37.17;;
32094;SDS011;18608;53.688;10.748;2022-10-31T08:27:48;126.33;;;36.90;;
32094;SDS011;18608;53.688;10.748;2022-10-31T08:30:15;110.03;;;36.07;;
32094;SDS011;18608;53.688;10.748;2022-10-31T08:32:41;143.23;;;39.00;;
32094;SDS011;18608;53.688;10.748;2022-10-31T08:35:07;108.87;;;34.13;;
32094;SDS011;18608;53.688;10.748;2022-10-31T08:37:33;118.53;;;34.83;;
32094;SDS011;18608;53.688;10.748;2022-10-31T08:39:59;108.57;;;36.20;;
32094;SDS011;18608;53.688;10.748;2022-10-31T08:42:25;111.20;;;34.00;;
32094;SDS011;18608;53.688;10.748;2022-10-31T08:44:51;91.93;;;33.63;;
32094;SDS011;18608;53.688;10.748;2022-10-31T08:47:17;85.53;;;31.60;;
32094;SDS011;18608;53.688;10.748;2022-10-31T08:49:43;96.13;;;30.80;;
32094;SDS011;18608;53.688;10.748;2022-10-31T08:52:09;94.63;;;31.73;;
32094;SDS011;18608;53.688;10.748;2022-10-31T08:54:35;97.83;;;33.00;;
32094;SDS011;18608;53.688;10.748;2022-10-31T08:57:01;81.83;;;27.53;;
32094;SDS011;18608;53.688;10.748;2022-10-31T08:59:27;89.90;;;31.43;;
32094;SDS011;18608;53.688;10.748;2022-10-31T09:01:53;81.73;;;30.03;;
32094;SDS011;18608;53.688;10.748;2022-10-31T09:04:19;105.93;;;30.67;;
32094;SDS011;18608;53.688;10.748;2022-10-31T09:06:45;87.53;;;27.87;;
32094;SDS011;18608;53.688;10.748;2022-10-31T09:09:11;89.13;;;28.47;;
32094;SDS011;18608;53.688;10.748;2022-10-31T09:11:37;86.10;;;28.43;;
32094;SDS011;18608;53.688;10.748;2022-10-31T09:14:03;79.13;;;26.03;;
32094;SDS011;18608;53.688;10.748;2022-10-31T09:16:28;80.67;;;28.53;;
32094;SDS011;18608;53.688;10.748;2022-10-31T09:18:54;85.23;;;26.10;;
32094;SDS011;18608;53.688;10.748;2022-10-31T09:21:20;65.03;;;25.87;;
32094;SDS011;18608;53.688;10.748;2022-10-31T09:23:46;66.87;;;21.50;;
32094;SDS011;18608;53.688;10.748;2022-10-31T09:26:12;66.17;;;23.90;;
32094;SDS011;18608;53.688;10.748;2022-10-31T09:28:39;66.57;;;24.10;;
32094;SDS011;18608;53.688;10.748;2022-10-31T09:31:05;82.43;;;24.70;;
32094;SDS011;18608;53.688;10.748;2022-10-31T09:33:31;88.43;;;26.03;;
32094;SDS011;18608;53.688;10.748;2022-10-31T09:35:58;68.57;;;22.70;;
32094;SDS011;18608;53.688;10.748;2022-10-31T09:38:25;62.30;;;21.17;;
32094;SDS011;18608;53.688;10.748;2022-10-31T09:41:12;71.23;;;22.50;;
32094;SDS011;18608;53.688;10.748;2022-10-31T09:46:57;65.93;;;22.57;;
32094;SDS011;18608;53.688;10.748;2022-10-31T09:50:18;57.87;;;21.37;;
32094;SDS011;18608;53.688;10.748;2022-10-31T09:52:36;63.97;;;21.97;;
32094;SDS011;18608;53.688;10.748;2022-10-31T09:55:16;65.10;;;23.03;;
32094;SDS011;18608;53.688;10.748;2022-10-31T09:57:46;48.50;;;20.40;;
32094;SDS011;18608;53.688;10.748;2022-10-31T10:00:19;63.80;;;20.60;;
32094;SDS011;18608;53.688;10.748;2022-10-31T10:05:51;52.00;;;20.03;;
32094;SDS011;18608;53.688;10.748;2022-10-31T10:08:38;43.20;;;20.77;;
32094;SDS011;18608;53.688;10.748;2022-10-31T10:14:04;45.43;;;19.80;;
32094;SDS011;18608;53.688;10.748;2022-10-31T10:27:01;41.40;;;16.40;;
32094;SDS011;18608;53.688;10.748;2022-10-31T10:29:52;37.97;;;16.40;;
32094;SDS011;18608;53.688;10.748;2022-10-31T10:32:43;29.90;;;14.33;;
32094;SDS011;18608;53.688;10.748;2022-10-31T10:37:57;34.97;;;14.37;;
32094;SDS011;18608;53.688;10.748;2022-10-31T10:40:43;26.83;;;13.37;;
32094;SDS011;18608;53.688;10.748;2022-10-31T10:48:59;31.87;;;14.17;;
32094;SDS011;18608;53.688;10.748;2022-10-31T10:51:37;29.93;;;13.03;;
32094;SDS011;18608;53.688;10.748;2022-10-31T10:59:32;26.50;;;14.40;;
32094;SDS011;18608;53.688;10.748;2022-10-31T11:01:59;21.83;;;14.03;;
32094;SDS011;18608;53.688;10.748;2022-10-31T11:07:02;26.87;;;13.87;;
32094;SDS011;18608;53.688;10.748;2022-10-31T11:09:29;23.37;;;13.50;;
32094;SDS011;18608;53.688;10.748;2022-10-31T11:11:55;27.60;;;12.87;;
32094;SDS011;18608;53.688;10.748;2022-10-31T11:14:21;29.70;;;14.93;;
32094;SDS011;18608;53.688;10.748;2022-10-31T11:16:53;29.30;;;14.17;;
32094;SDS011;18608;53.688;10.748;2022-10-31T11:19:31;25.70;;;13.00;;
32094;SDS011;18608;53.688;10.748;2022-10-31T11:22:05;29.33;;;13.60;;
32094;SDS011;18608;53.688;10.748;2022-10-31T11:24:40;33.33;;;14.27;;
32094;SDS011;18608;53.688;10.748;2022-10-31T11:27:25;28.30;;;13.20;;
32094;SDS011;18608;53.688;10.748;2022-10-31T11:29:51;28.03;;;13.43;;
32094;SDS011;18608;53.688;10.748;2022-10-31T11:32:18;24.70;;;11.70;;
32094;SDS011;18608;53.688;10.748;2022-10-31T11:34:55;21.83;;;10.90;;
32094;SDS011;18608;53.688;10.748;2022-10-31T11:37:34;17.47;;;10.30;;
32094;SDS011;18608;53.688;10.748;2022-10-31T11:40:06;20.50;;;10.73;;
32094;SDS011;18608;53.688;10.748;2022-10-31T11:42:40;23.30;;;13.33;;
32094;SDS011;18608;53.688;10.748;2022-10-31T11:45:13;18.60;;;9.77;;
32094;SDS011;18608;53.688;10.748;2022-10-31T11:47:49;18.57;;;10.40;;
32094;SDS011;18608;53.688;10.748;2022-10-31T11:50:22;17.40;;;10.63;;
32094;SDS011;18608;53.688;10.748;2022-10-31T11:53:12;36.27;;;11.40;;
32094;SDS011;18608;53.688;10.748;2022-10-31T11:55:42;24.03;;;12.43;;
32094;SDS011;18608;53.688;10.748;2022-10-31T11:58:23;25.00;;;10.30;;
32094;SDS011;18608;53.688;10.748;2022-10-31T12:00:51;18.27;;;11.10;;
32094;SDS011;18608;53.688;10.748;2022-10-31T12:05:48;23.63;;;11.13;;
32094;SDS011;18608;53.688;10.748;2022-10-31T12:08:29;18.20;;;9.87;;
32094;SDS011;18608;53.688;10.748;2022-10-31T12:10:59;19.97;;;9.83;;
32094;SDS011;18608;53.688;10.748;2022-10-31T12:13:35;20.10;;;10.07;;
32094;SDS011;18608;53.688;10.748;2022-10-31T12:16:08;19.60;;;8.50;;
32094;SDS011;18608;53.688;10.748;2022-10-31T12:18:48;15.80;;;8.43;;
32094;SDS011;18608;53.688;10.748;2022-10-31T12:26:34;17.20;;;8.53;;
32094;SDS011;18608;53.688;10.748;2022-10-31T12:29:25;17.97;;;8.80;;
32094;SDS011;18608;53.688;10.748;2022-10-31T12:40:36;21.07;;;9.87;;
32094;SDS011;18608;53.688;10.748;2022-10-31T12:45:56;12.87;;;8.90;;
32094;SDS011;18608;53.688;10.748;2022-10-31T12:59:01;15.53;;;6.90;;
32094;SDS011;18608;53.688;10.748;2022-10-31T13:01:30;9.87;;;7.60;;
32094;SDS011;18608;53.688;10.748;2022-10-31T13:04:14;11.57;;;8.40;;
32094;SDS011;18608;53.688;10.748;2022-10-31T13:06:57;16.67;;;7.30;;
32094;SDS011;18608;53.688;10.748;2022-10-31T13:09:37;11.43;;;6.83;;
32094;SDS011;18608;53.688;10.748;2022-10-31T13:12:09;16.73;;;6.77;;
32094;SDS011;18608;53.688;10.748;2022-10-31T13:14:42;13.77;;;7.10;;
32094;SDS011;18608;53.688;10.748;2022-10-31T13:17:22;8.80;;;7.10;;
32094;SDS011;18608;53.688;10.748;2022-10-31T13:20:16;14.90;;;6.03;;
32094;SDS011;18608;53.688;10.748;2022-10-31T13:22:44;11.10;;;6.30;;
32094;SDS011;18608;53.688;10.748;2022-10-31T13:25:20;10.20;;;6.13;;
32094;SDS011;18608;53.688;10.748;2022-10-31T13:28:03;13.03;;;7.20;;
32094;SDS011;18608;53.688;10.748;2022-10-31T13:30:48;11.50;;;6.60;;
32094;SDS011;18608;53.688;10.748;2022-10-31T13:33:20;13.00;;;5.73;;
32094;SDS011;18608;53.688;10.748;2022-10-31T13:46:21;10.40;;;5.70;;
32094;SDS011;18608;53.688;10.748;2022-10-31T13:48:56;18.00;;;6.70;;
32094;SDS011;18608;53.688;10.748;2022-10-31T13:51:29;9.23;;;6.33;;
32094;SDS011;18608;53.688;10.748;2022-10-31T13:54:18;14.43;;;5.73;;
32094;SDS011;18608;53.688;10.748;2022-10-31T13:56:50;11.07;;;6.07;;
32094;SDS011;18608;53.688;10.748;2022-10-31T13:59:18;9.63;;;6.20;;
32094;SDS011;18608;53.688;10.748;2022-10-31T14:01:53;12.23;;;6.60;;
32094;SDS011;18608;53.688;10.748;2022-10-31T14:06:58;14.53;;;7.03;;
32094;SDS011;18608;53.688;10.748;2022-10-31T14:09:39;10.03;;;6.50;;
32094;SDS011;18608;53.688;10.748;2022-10-31T14:12:39;11.20;;;6.60;;
32094;SDS011;18608;53.688;10.748;2022-10-31T14:15:16;11.63;;;6.77;;
32094;SDS011;18608;53.688;10.748;2022-10-31T14:17:52;10.63;;;5.80;;
32094;SDS011;18608;53.688;10.748;2022-10-31T14:28:54;16.33;;;7.17;;
32094;SDS011;18608;53.688;10.748;2022-10-31T14:31:53;22.07;;;8.50;;
32094;SDS011;18608;53.688;10.748;2022-10-31T14:37:41;25.37;;;8.70;;
32094;SDS011;18608;53.688;10.748;2022-10-31T14:40:58;16.83;;;7.40;;
32094;SDS011;18608;53.688;10.748;2022-10-31T14:51:38;17.37;;;7.27;;
32094;SDS011;18608;53.688;10.748;2022-10-31T14:54:10;14.63;;;8.00;;
32094;SDS011;18608;53.688;10.748;2022-10-31T14:56:47;12.63;;;6.83;;
32094;SDS011;18608;53.688;10.748;2022-10-31T14:59:17;12.20;;;6.90;;
32094;SDS011;18608;53.688;10.748;2022-10-31T15:01:55;18.23;;;8.27;;
32094;SDS011;18608;53.688;10.748;2022-10-31T15:04:34;14.80;;;8.50;;
32094;SDS011;18608;53.688;10.748;2022-10-31T15:09:30;13.23;;;7.87;;
32094;SDS011;18608;53.688;10.748;2022-10-31T15:12:05;39.93;;;23.80;;
32094;SDS011;18608;53.688;10.748;2022-10-31T15:17:58;15.60;;;8.30;;
32094;SDS011;18608;53.688;10.748;2022-10-31T15:20:26;16.60;;;7.80;;
32094;SDS011;18608;53.688;10.748;2022-10-31T15:22:57;12.00;;;6.67;;
32094;SDS011;18608;53.688;10.748;2022-10-31T15:25:32;15.67;;;8.57;;
32094;SDS011;18608;53.688;10.748;2022-10-31T15:27:59;15.03;;;7.73;;
32094;SDS011;18608;53.688;10.748;2022-10-31T15:30:26;21.77;;;9.50;;
32094;SDS011;18608;53.688;10.748;2022-10-31T15:32:53;12.00;;;7.50;;
32094;SDS011;18608;53.688;10.748;2022-10-31T15:35:20;16.97;;;8.57;;
32094;SDS011;18608;53.688;10.748;2022-10-31T15:37:51;16.43;;;9.00;;
32094;SDS011;18608;53.688;10.748;2022-10-31T15:40:18;17.10;;;8.63;;
32094;SDS011;18608;53.688;10.748;2022-10-31T15:42:53;22.57;;;11.40;;
32094;SDS011;18608;53.688;10.748;2022-10-31T15:45:23;19.93;;;11.00;;
32094;SDS011;18608;53.688;10.748;2022-10-31T15:50:28;17.73;;;11.13;;
32094;SDS011;18608;53.688;10.748;2022-10-31T15:53:00;28.57;;;11.47;;
32094;SDS011;18608;53.688;10.748;2022-10-31T15:55:28;25.03;;;11.93;;
32094;SDS011;18608;53.688;10.748;2022-10-31T15:57:58;21.10;;;12.00;;
32094;SDS011;18608;53.688;10.748;2022-10-31T16:00:34;22.33;;;12.27;;
32094;SDS011;18608;53.688;10.748;2022-10-31T16:05:48;24.70;;;13.63;;
32094;SDS011;18608;53.688;10.748;2022-10-31T16:13:25;18.20;;;11.93;;
32094;SDS011;18608;53.688;10.748;2022-10-31T16:15:55;28.10;;;13.30;;
32094;SDS011;18608;53.688;10.748;2022-10-31T16:18:26;25.20;;;13.83;;
32094;SDS011;18608;53.688;10.748;2022-10-31T16:20:55;24.40;;;14.00;;
32094;SDS011;18608;53.688;10.748;2022-10-31T16:23:22;26.80;;;13.73;;
32094;SDS011;18608;53.688;10.748;2022-10-31T16:25:51;22.03;;;12.77;;
32094;SDS011;18608;53.688;10.748;2022-10-31T16:28:18;27.90;;;13.50;;
32094;SDS011;18608;53.688;10.748;2022-10-31T16:30:49;26.73;;;13.70;;
32094;SDS011;18608;53.688;10.748;2022-10-31T16:38:56;24.90;;;13.43;;
32094;SDS011;18608;53.688;10.748;2022-10-31T16:41:23;22.10;;;12.60;;
32094;SDS011;18608;53.688;10.748;2022-10-31T16:43:50;27.10;;;13.70;;
32094;SDS011;18608;53.688;10.748;2022-10-31T16:46:19;30.93;;;12.03;;
32094;SDS011;18608;53.688;10.748;2022-10-31T16:48:50;29.77;;;11.80;;
32094;SDS011;18608;53.688;10.748;2022-10-31T16:51:16;23.33;;;11.70;;
32094;SDS011;18608;53.688;10.748;2022-10-31T16:53:42;26.07;;;12.10;;
32094;SDS011;18608;53.688;10.748;2022-10-31T16:56:14;24.00;;;11.17;;
32094;SDS011;18608;53.688;10.748;2022-10-31T16:58:42;30.40;;;13.03;;
32094;SDS011;18608;53.688;10.748;2022-10-31T17:01:08;20.97;;;12.47;;
32094;SDS011;18608;53.688;10.748;2022-10-31T17:03:34;22.33;;;12.33;;
32094;SDS011;18608;53.688;10.748;2022-10-31T17:06:00;17.93;;;10.53;;
32094;SDS011;18608;53.688;10.748;2022-10-31T17:08:27;25.43;;;13.00;;
32094;SDS011;18608;53.688;10.748;2022-10-31T17:10:53;22.13;;;12.57;;
32094;SDS011;18608;53.688;10.748;2022-10-31T17:13:24;19.00;;;12.13;;
32094;SDS011;18608;53.688;10.748;2022-10-31T17:15:53;27.30;;;12.70;;